createdAt,value
2022-09-10T00:00:06.313Z,1012.34
2022-09-10T00:05:03.011Z,1012.4
2022-09-10T00:10:04.154Z,1012.44
2022-09-10T00:15:02.980Z,1012.64
2022-09-10T00:20:04.154Z,1012.84
2022-09-10T00:25:06.319Z,1012.94
2022-09-10T00:30:05.609Z,1012.92
2022-09-10T00:35:02.947Z,1012.99
2022-09-10T00:40:05.427Z,1012.99
2022-09-10T00:45:03.076Z,1013.1
2022-09-10T00:50:04.171Z,1013.13
2022-09-10T00:55:02.999Z,1013.2
2022-09-10T01:00:05.541Z,1013.24
2022-09-10T01:05:02.981Z,1013.36
2022-09-10T01:10:04.392Z,1013.4
2022-09-10T01:15:03.073Z,1013.53
2022-09-10T01:20:04.155Z,1013.53
2022-09-10T01:25:03.017Z,1013.51
2022-09-10T01:30:07.335Z,1013.62
2022-09-10T01:35:03.157Z,1013.69
2022-09-10T01:40:04.155Z,1013.99
2022-09-10T01:45:03.035Z,1013.65
2022-09-10T01:50:04.064Z,1013.74
2022-09-10T01:55:02.996Z,1013.95
2022-09-10T02:00:06.206Z,1013.67
2022-09-10T02:05:03.318Z,1013.72
2022-09-10T02:10:04.272Z,1013.83
2022-09-10T02:15:03.005Z,1013.9
2022-09-10T02:20:04.210Z,1013.68
2022-09-10T02:25:03.051Z,1013.62
2022-09-10T02:30:05.077Z,1013.67
2022-09-10T02:35:03.011Z,1013.6
2022-09-10T02:40:04.263Z,1013.66
2022-09-10T02:45:02.925Z,1013.58
2022-09-10T02:50:09.216Z,1013.61
2022-09-10T02:55:03.014Z,1013.69
2022-09-10T03:00:04.534Z,1013.75
2022-09-10T03:05:03.135Z,1013.83
2022-09-10T03:10:04.308Z,1013.88
2022-09-10T03:15:03.053Z,1014.04
2022-09-10T03:20:04.281Z,1014.06
2022-09-10T03:25:03.080Z,1014.14
2022-09-10T03:30:05.075Z,1014.24
2022-09-10T03:35:02.977Z,1014.22
2022-09-10T03:40:04.184Z,1014.19
2022-09-10T03:45:03.016Z,1014.11
2022-09-10T03:50:04.116Z,1014.14
2022-09-10T03:55:02.935Z,1014.07
2022-09-10T04:00:05.059Z,1014.02
2022-09-10T04:05:02.964Z,1013.99
2022-09-10T04:10:04.294Z,1013.95
2022-09-10T04:15:03.009Z,1013.89
2022-09-10T04:20:03.987Z,1013.9
2022-09-10T04:25:02.972Z,1013.95
2022-09-10T04:30:04.273Z,1013.93
2022-09-10T04:35:02.974Z,1013.9
2022-09-10T04:40:04.244Z,1013.96
2022-09-10T04:45:02.964Z,1014.04
2022-09-10T04:50:04.071Z,1014.04
2022-09-10T04:55:02.954Z,1014.09
2022-09-10T05:00:05.118Z,1014.18
2022-09-10T05:05:02.993Z,1014.08
2022-09-10T05:10:04.231Z,1014.11
2022-09-10T05:15:02.998Z,1014.09
2022-09-10T05:20:04.115Z,1014.04
2022-09-10T05:25:02.953Z,1014.21
2022-09-10T05:30:04.847Z,1014.4
2022-09-10T05:35:02.999Z,1014.47
2022-09-10T05:40:04.280Z,1014.48
2022-09-10T05:45:02.961Z,1014.38
2022-09-10T05:50:04.324Z,1014.46
2022-09-10T05:55:02.990Z,1014.52
2022-09-10T06:00:05.383Z,1014.62
2022-09-10T06:05:02.966Z,1014.6
2022-09-10T06:10:04.135Z,1014.62
2022-09-10T06:15:02.993Z,1014.7
2022-09-10T06:20:04.197Z,1014.69
2022-09-10T06:25:02.968Z,1014.86
2022-09-10T06:30:05.317Z,1014.91
2022-09-10T06:35:03.029Z,1014.9
2022-09-10T06:40:04.033Z,1015.01
2022-09-10T06:45:02.967Z,1015.02
2022-09-10T06:50:04.038Z,1014.93
2022-09-10T06:55:03.084Z,1014.96
2022-09-10T07:00:06.185Z,1014.99
2022-09-10T07:05:03.010Z,1015.01
2022-09-10T07:10:04.223Z,1015.08
2022-09-10T07:15:02.998Z,1015.11
2022-09-10T07:20:04.029Z,1015.13
2022-09-10T07:25:03.023Z,1015.16
2022-09-10T07:30:05.195Z,1015.21
2022-09-10T07:35:02.994Z,1015.26
2022-09-10T07:40:04.110Z,1015.26
2022-09-10T07:45:03.035Z,1015.39
2022-09-10T07:50:04.150Z,1015.43
2022-09-10T07:55:02.898Z,1015.45
2022-09-10T08:00:06.114Z,1015.47
2022-09-10T08:05:03.001Z,1015.52
2022-09-10T08:10:04.173Z,1015.59
2022-09-10T08:15:03.064Z,1015.64
2022-09-10T08:20:04.025Z,1015.68
2022-09-10T08:25:02.995Z,1015.78
2022-09-10T08:30:06.185Z,1015.75
2022-09-10T08:35:02.985Z,1015.68
2022-09-10T08:40:04.172Z,1015.7
2022-09-10T08:45:03.062Z,1015.74
2022-09-10T08:50:09.057Z,1015.77
2022-09-10T08:55:02.914Z,1015.76
2022-09-10T09:00:05.509Z,1015.85
2022-09-10T09:05:02.953Z,1015.92
2022-09-10T09:10:04.165Z,1016.01
2022-09-10T09:15:05.782Z,1016.12
2022-09-10T09:20:04.166Z,1016.25
2022-09-10T09:25:02.968Z,1016.33
2022-09-10T09:30:04.327Z,1016.4
2022-09-10T09:35:02.911Z,1016.45
2022-09-10T09:40:04.180Z,1016.49
2022-09-10T09:45:02.969Z,1016.57
2022-09-10T09:50:04.147Z,1016.64
2022-09-10T09:55:14.117Z,1016.71
2022-09-10T10:00:04.448Z,1016.74
2022-09-10T10:05:03.006Z,1016.72
2022-09-10T10:10:04.045Z,1016.63
2022-09-10T10:15:02.927Z,1016.6
2022-09-10T10:20:04.235Z,1016.67
2022-09-10T10:25:02.990Z,1016.74
2022-09-10T10:30:06.226Z,1016.9
2022-09-10T10:35:02.922Z,1016.9
2022-09-10T10:40:04.040Z,1016.9
2022-09-10T10:45:03.034Z,1016.91
2022-09-10T10:50:05.411Z,1016.87
2022-09-10T10:55:02.997Z,1016.99
2022-09-10T11:00:05.437Z,1016.99
2022-09-10T11:10:04.092Z,1017.02
2022-09-10T11:15:03.086Z,1017.1
2022-09-10T11:20:26.962Z,1017.13
2022-09-10T11:25:03.096Z,1017.24
2022-09-10T11:30:05.825Z,1017.17
2022-09-10T11:35:03.059Z,1017.3
2022-09-10T11:40:04.187Z,1017.38
2022-09-10T11:45:03.013Z,1017.42
2022-09-10T11:50:04.272Z,1017.41
2022-09-10T11:55:03.043Z,1017.42
2022-09-10T12:00:05.629Z,1017.44
2022-09-10T12:05:02.987Z,1017.53
2022-09-10T12:10:04.121Z,1017.64
2022-09-10T12:15:03.116Z,1017.61
2022-09-10T12:20:04.184Z,1017.7
2022-09-10T12:25:02.975Z,1017.77
2022-09-10T12:35:02.985Z,1017.74
2022-09-10T12:40:08.092Z,1017.74
2022-09-10T12:45:02.968Z,1017.61
2022-09-10T12:50:04.166Z,1017.66
2022-09-10T12:55:02.974Z,1017.7
2022-09-10T13:00:04.411Z,1017.55
2022-09-10T13:05:02.933Z,1017.45
2022-09-10T13:10:04.154Z,1017.47
2022-09-10T13:15:02.975Z,1017.41
2022-09-10T13:20:04.128Z,1017.39
2022-09-10T13:25:02.971Z,1017.43
2022-09-10T13:30:04.376Z,1017.52
2022-09-10T13:35:02.966Z,1017.79
2022-09-10T13:40:04.208Z,1017.97
2022-09-10T13:45:02.979Z,1018.02
2022-09-10T13:50:04.202Z,1017.89
2022-09-10T13:55:03.041Z,1017.98
2022-09-10T14:00:05.285Z,1017.98
2022-09-10T14:05:03.013Z,1017.81
2022-09-10T14:10:04.269Z,1017.84
2022-09-10T14:15:02.990Z,1017.77
2022-09-10T14:20:04.103Z,1017.59
2022-09-10T14:25:02.992Z,1017.53
2022-09-10T14:30:04.277Z,1017.43
2022-09-10T14:35:07.085Z,1017.44
2022-09-10T14:40:04.239Z,1017.31
2022-09-10T14:45:02.969Z,1017.18
2022-09-10T14:50:07.121Z,1017.36
2022-09-10T14:55:03.047Z,1017.38
2022-09-10T15:00:05.341Z,1017.41
2022-09-10T15:05:03.083Z,1017.41
2022-09-10T15:10:04.181Z,1017.31
2022-09-10T15:15:02.998Z,1017.1
2022-09-10T15:20:04.288Z,1017.13
2022-09-10T15:25:11.647Z,1017.02
2022-09-10T15:30:04.771Z,1016.86
2022-09-10T15:35:02.977Z,1016.81
2022-09-10T15:40:05.398Z,1016.74
2022-09-10T15:45:03.157Z,1016.83
2022-09-10T15:50:05.370Z,1016.87
2022-09-10T15:55:02.994Z,1016.85
2022-09-10T16:00:04.237Z,1016.84
2022-09-10T16:05:02.969Z,1016.75
2022-09-10T16:10:04.227Z,1016.6
2022-09-10T16:15:03.037Z,1016.58
2022-09-10T16:20:04.137Z,1016.51
2022-09-10T16:25:03.069Z,1016.39
2022-09-10T16:30:05.123Z,1016.41
2022-09-10T16:35:03.031Z,1016.43
2022-09-10T16:40:04.324Z,1016.39
2022-09-10T16:45:02.995Z,1016.32
2022-09-10T16:50:04.326Z,1016.31
2022-09-10T16:55:02.978Z,1016.23
2022-09-10T17:00:05.838Z,1016.18
2022-09-10T17:05:02.980Z,1016.24
2022-09-10T17:10:04.129Z,1016.21
2022-09-10T17:15:03.203Z,1016.08
2022-09-10T17:20:04.143Z,1016.03
2022-09-10T17:25:02.984Z,1015.99
2022-09-10T17:30:04.195Z,1015.98
2022-09-10T17:35:03.047Z,1015.91
2022-09-10T17:40:04.211Z,1015.82
2022-09-10T17:45:03.043Z,1015.74
2022-09-10T17:50:04.195Z,1015.63
2022-09-10T17:55:03.110Z,1015.56
2022-09-10T18:00:05.642Z,1015.48
2022-09-10T18:05:03.206Z,1015.46
2022-09-10T18:10:04.270Z,1015.32
2022-09-10T18:15:02.973Z,1015.36
2022-09-10T18:20:04.187Z,1015.26
2022-09-10T18:25:03.003Z,1015.22
2022-09-10T18:30:05.167Z,1015.15
2022-09-10T18:35:03.022Z,1015.15
2022-09-10T18:40:04.268Z,1015.02
2022-09-10T18:45:03.077Z,1014.86
2022-09-10T18:50:04.310Z,1014.79
2022-09-10T18:55:02.976Z,1014.85
2022-09-10T19:00:06.533Z,1014.81
2022-09-10T19:05:18.045Z,1014.79
2022-09-10T19:10:04.240Z,1014.77
2022-09-10T19:15:03.078Z,1014.81
2022-09-10T19:20:04.390Z,1014.88
2022-09-10T19:25:02.958Z,1014.88
2022-09-10T19:30:05.764Z,1014.9
2022-09-10T19:35:03.045Z,1015.03
2022-09-10T19:40:04.204Z,1015.05
2022-09-10T19:45:05.858Z,1015.03
2022-09-10T19:50:04.206Z,1015.04
2022-09-10T19:55:03.075Z,1015.02
2022-09-10T20:00:04.295Z,1015.14
2022-09-10T20:05:03.007Z,1015.18
2022-09-10T20:10:04.186Z,1015.13
2022-09-10T20:15:03.078Z,1015.19
2022-09-10T20:20:04.285Z,1015.21
2022-09-10T20:25:03.073Z,1015.33
2022-09-10T20:30:06.112Z,1015.37
2022-09-10T20:35:03.001Z,1015.43
2022-09-10T20:40:09.325Z,1015.49
2022-09-10T20:45:03.044Z,1015.51
2022-09-10T20:50:04.190Z,1015.56
2022-09-10T20:55:03.037Z,1015.52
2022-09-10T21:00:06.180Z,1015.55
2022-09-10T21:05:03.004Z,1015.59
2022-09-10T21:10:04.308Z,1015.67
2022-09-10T21:15:03.157Z,1015.64
2022-09-10T21:20:09.263Z,1015.58
2022-09-10T21:25:03.031Z,1015.54
2022-09-10T21:30:04.996Z,1015.53
2022-09-10T21:35:03.030Z,1015.56
2022-09-10T21:40:04.310Z,1015.63
2022-09-10T21:45:02.995Z,1015.64
2022-09-10T21:50:04.246Z,1015.67
2022-09-10T21:55:02.980Z,1015.67
2022-09-10T22:00:07.194Z,1015.7
2022-09-10T22:05:02.978Z,1015.7
2022-09-10T22:10:04.261Z,1015.71
2022-09-10T22:15:03.078Z,1015.72
2022-09-10T22:20:04.206Z,1015.79
2022-09-10T22:25:03.094Z,1015.9
2022-09-10T22:30:04.423Z,1015.97
2022-09-10T22:35:02.962Z,1015.97
2022-09-10T22:40:04.327Z,1016.1
2022-09-10T22:45:02.977Z,1016.17
2022-09-10T22:50:04.191Z,1016.13
2022-09-10T22:55:02.997Z,1016.23
2022-09-10T23:00:04.523Z,1016.38
2022-09-10T23:05:03.287Z,1016.45
2022-09-10T23:10:04.299Z,1016.5
2022-09-10T23:15:03.017Z,1016.46
2022-09-10T23:20:04.237Z,1016.48
2022-09-10T23:25:03.150Z,1016.57
2022-09-10T23:30:04.271Z,1016.53
2022-09-10T23:35:03.021Z,1016.66
2022-09-10T23:40:04.238Z,1016.78
2022-09-10T23:45:02.992Z,1016.81
2022-09-10T23:50:04.229Z,1016.89
2022-09-10T23:55:03.076Z,1016.92
